EDFH Airport Information

Runway Information
Runway 03 Length 12467 ft width 148 ft
Elevation 1649 ft Threshold 3461 ft Heading 32
Runway 21 Length 12467 ft Width 148 ft
Elevation 1595 ft Threshold 984 ft Heading 212
Airport Frequencies
Type AFIS Name LANGEN INF Frequency 123.525 MHZ
Type APP Name LANGEN RAD Frequency 125.6 MHZ
Type ATIS Name ATIS Frequency 136.35 MHZ
Type GND Name GND Frequency 121.975 MHZ
Type TWR Name TWR Frequency 119.65 MHZ
Airport Navaids
Type NDB Name Hahn Frequency 376 KHZ
Type DME Name Hahn Frequency 116950 KHZ
Airport Weather Information & NOTAM
ADDS - METARS form results

(1135 UTC 21 May 2022)
Data provider http://aviationweather.gov/metar/data/
 
METAR text: EDFH 211120Z 29011KT 250V310 9999 SCT037 15/08 Q1023
Conditions at: EDFH (HAHN , DE) observed 1120 UTC 21 May 2022
Temperature: 15.0°C (59°F)
Dewpoint: 8.0°C (46°F) [RH = 63%]
Pressure (altimeter): 30.21 inches Hg (1023.0 mb)
Winds: from the WNW (290 degrees) at 13 MPH (11 knots; 5.7 m/s)
Visibility: 6 or more miles (10+ km)
Ceiling: at least 12,000 feet AGL
Clouds: scattered clouds at 3700 feet AGL
Weather: no significant weather observed at this time

METAR text: EDFH 211050Z 28012KT 250V320 9999 SCT030 15/08 Q1023
Conditions at: EDFH (HAHN , DE) observed 1050 UTC 21 May 2022
Temperature: 15.0°C (59°F)
Dewpoint: 8.0°C (46°F) [RH = 63%]
Pressure (altimeter): 30.21 inches Hg (1023.0 mb)
Winds: from the W (280 degrees) at 14 MPH (12 knots; 6.2 m/s)
Visibility: 6 or more miles (10+ km)
Ceiling: at least 12,000 feet AGL
Clouds: scattered clouds at 3000 feet AGL
Weather: no significant weather observed at this time

Forecast for: EDFH (HAHN , DE)
Text: TAF EDFH 211100Z 2112/2212 28010G20KT 9999 SCT030
Forecast period: 1200 to 1800 UTC 21 May 2022
Forecast type: FROM: standard forecast or significant change
Winds: from the W (280 degrees) at 12 MPH (10 knots; 5.1 m/s)
gusting to 23 MPH (20 knots; 10.3 m/s)
Visibility: 6 or more miles (10+ km)
Ceiling: at least 12,000 feet AGL
Clouds: scattered clouds at 3000 feet AGL
Weather: no significant weather forecast for this period
Text: BECMG 2118/2120 VRB03KT
Forecast period: 1800 UTC 21 May 2022 to 0800 UTC 22 May 2022
Forecast type: BECOMING: Conditions expected to become as follows by 2000 UTC 21 May 2022
Winds: variable direction winds at 3 MPH (3 knots; 1.5 m/s)
Visibility: 6 or more miles (10+ km)
Ceiling: at least 12,000 feet AGL
Clouds: scattered clouds at 3000 feet AGL
Weather: no significant weather forecast for this period
Text: BECMG 2208/2210 13007KT
Forecast period: 0800 to 1200 UTC 22 May 2022
Forecast type: BECOMING: Conditions expected to become as follows by 1000 UTC 22 May 2022
Winds: from the SE (130 degrees) at 8 MPH (7 knots; 3.6 m/s)
Visibility: 6 or more miles (10+ km)
Ceiling: at least 12,000 feet AGL
Clouds: scattered clouds at 3000 feet AGL
Weather: no significant weather forecast for this period